Time;durP1;ratioP1;P1;durP2;ratioP2;P2;SDS_P1;SDS_P2;PMS_P1;PMS_P2;Temp;Humidity;BMP_temperature;BMP_pressure;BME280_temperature;BME280_humidity;BME280_pressure;Samples;Min_cycle;Max_cycle;Signal;HPM_P1;HPM_P2
2022/11/08 00:01:30;;;;;;;5.25;1.52;;;;;;;;;;4993385;28;20191;-80
2022/11/08 00:03:56;;;;;;;6.35;1.67;;;;;;;;;;4991923;28;20117;-80
2022/11/08 00:14:33;;;;;;;4.93;1.13;;;;;;;;;;4993355;28;20516;-80
2022/11/08 00:16:59;;;;;;;14.68;1.85;;;;;;;;;;4994873;28;20038;-81
2022/11/08 00:19:24;;;;;;;4.20;1.30;;;;;;;;;;4994413;28;20037;-80
2022/11/08 00:21:49;;;;;;;4.47;1.48;;;;;;;;;;4989938;28;20121;-79
2022/11/08 00:24:15;;;;;;;3.70;1.15;;;;;;;;;;4989653;28;20033;-79
2022/11/08 00:26:40;;;;;;;3.88;1.15;;;;;;;;;;4994402;28;20066;-79
2022/11/08 00:29:05;;;;;;;5.82;1.15;;;;;;;;;;4994493;28;20038;-79
2022/11/08 00:31:31;;;;;;;4.90;1.50;;;;;;;;;;4993999;28;20074;-78
2022/11/08 00:33:56;;;;;;;3.28;1.20;;;;;;;;;;4994618;28;20052;-78
2022/11/08 00:36:22;;;;;;;4.40;1.30;;;;;;;;;;4993854;28;20030;-79
2022/11/08 00:38:47;;;;;;;8.40;1.50;;;;;;;;;;4990414;28;20048;-79
2022/11/08 00:41:12;;;;;;;4.32;1.40;;;;;;;;;;4992330;28;20117;-79
2022/11/08 00:43:38;;;;;;;2.60;1.10;;;;;;;;;;4993901;28;20046;-80
2022/11/08 00:46:03;;;;;;;3.67;1.13;;;;;;;;;;4992261;28;20106;-79
2022/11/08 00:48:29;;;;;;;2.70;1.10;;;;;;;;;;4993379;28;20092;-79
2022/11/08 00:50:54;;;;;;;3.22;1.20;;;;;;;;;;4993773;28;20390;-78
2022/11/08 00:53:19;;;;;;;4.35;1.30;;;;;;;;;;4993952;28;20034;-79
2022/11/08 00:55:45;;;;;;;2.45;1.20;;;;;;;;;;4994005;28;20425;-79
2022/11/08 00:58:10;;;;;;;3.55;1.00;;;;;;;;;;4994061;28;20042;-79
2022/11/08 01:00:35;;;;;;;2.47;1.10;;;;;;;;;;4993377;28;20042;-79
2022/11/08 01:03:19;;;;;;;3.63;1.30;;;;;;;;;;4993522;28;20057;-80
2022/11/08 01:05:45;;;;;;;5.00;1.13;;;;;;;;;;4993686;28;20034;-79
2022/11/08 01:08:11;;;;;;;4.63;1.20;;;;;;;;;;5008960;28;20402;-80
2022/11/08 01:10:41;;;;;;;5.20;1.40;;;;;;;;;;4992560;28;20034;-80
2022/11/08 01:13:07;;;;;;;2.15;0.88;;;;;;;;;;4992699;28;20041;-80
2022/11/08 01:15:37;;;;;;;2.45;0.93;;;;;;;;;;4992158;28;20046;-81
2022/11/08 01:18:03;;;;;;;1.50;0.90;;;;;;;;;;4992708;28;20034;-80
2022/11/08 01:20:29;;;;;;;2.28;0.90;;;;;;;;;;4993566;28;20385;-80
2022/11/08 01:22:54;;;;;;;3.25;1.00;;;;;;;;;;4992502;28;20089;-79
2022/11/08 01:25:19;;;;;;;3.13;0.88;;;;;;;;;;4993456;28;20462;-79
2022/11/08 01:27:45;;;;;;;3.00;1.10;;;;;;;;;;4993577;28;20022;-79
2022/11/08 01:30:10;;;;;;;2.08;0.98;;;;;;;;;;4993365;28;20471;-80
2022/11/08 01:32:36;;;;;;;2.78;0.90;;;;;;;;;;4993226;28;20113;-80
2022/11/08 01:35:01;;;;;;;2.72;0.88;;;;;;;;;;4993268;28;20058;-80
2022/11/08 01:37:27;;;;;;;2.88;1.00;;;;;;;;;;4993690;28;20046;-79
2022/11/08 01:39:52;;;;;;;1.38;0.77;;;;;;;;;;4993404;28;20026;-79
2022/11/08 01:42:26;;;;;;;2.33;0.80;;;;;;;;;;4993546;28;20418;-79
2022/11/08 01:45:05;;;;;;;4.00;0.60;;;;;;;;;;4998409;28;20043;-79
2022/11/08 01:47:31;;;;;;;1.45;0.73;;;;;;;;;;4993291;28;20113;-79
2022/11/08 01:49:59;;;;;;;1.25;0.70;;;;;;;;;;4993431;28;20121;-79
2022/11/08 01:52:24;;;;;;;1.83;0.80;;;;;;;;;;4993200;28;20030;-79
2022/11/08 01:55:16;;;;;;;2.47;0.90;;;;;;;;;;4998138;28;20524;-80
2022/11/08 01:57:57;;;;;;;2.60;0.82;;;;;;;;;;4992589;28;20453;-79
2022/11/08 02:00:23;;;;;;;1.27;0.60;;;;;;;;;;4987931;28;20470;-80
2022/11/08 02:02:53;;;;;;;2.05;0.80;;;;;;;;;;4994605;28;20049;-79
2022/11/08 02:05:24;;;;;;;3.88;1.02;;;;;;;;;;4995793;28;20065;-79
2022/11/08 02:07:54;;;;;;;2.38;0.70;;;;;;;;;;4992395;28;20454;-81
2022/11/08 02:10:21;;;;;;;1.15;0.60;;;;;;;;;;4992227;28;20042;-80
2022/11/08 02:12:47;;;;;;;3.28;0.93;;;;;;;;;;4992298;28;20045;-79
2022/11/08 02:15:14;;;;;;;2.85;0.75;;;;;;;;;;4991719;28;20038;-79
2022/11/08 02:17:39;;;;;;;3.28;0.98;;;;;;;;;;4992169;28;20038;-80
2022/11/08 02:20:05;;;;;;;3.25;1.00;;;;;;;;;;4993963;28;20481;-80
2022/11/08 02:23:00;;;;;;;2.85;0.60;;;;;;;;;;4993548;28;20046;-79
2022/11/08 02:25:25;;;;;;;0.93;0.60;;;;;;;;;;4974953;28;20065;-78
2022/11/08 02:27:51;;;;;;;1.40;0.65;;;;;;;;;;4975953;28;20034;-79
2022/11/08 02:30:16;;;;;;;2.13;0.50;;;;;;;;;;5006918;28;20474;-79
2022/11/08 02:32:41;;;;;;;1.17;0.60;;;;;;;;;;4993095;28;20050;-78
2022/11/08 02:35:16;;;;;;;1.42;0.70;;;;;;;;;;4993100;28;20035;-79
2022/11/08 02:37:42;;;;;;;5.80;0.60;;;;;;;;;;4989765;28;20043;-79
2022/11/08 02:40:08;;;;;;;2.47;0.60;;;;;;;;;;4990792;28;20402;-78
2022/11/08 02:42:36;;;;;;;2.25;0.70;;;;;;;;;;4992022;28;20066;-78
2022/11/08 02:45:03;;;;;;;1.85;0.75;;;;;;;;;;5006760;28;20038;-80
2022/11/08 02:47:28;;;;;;;1.55;0.90;;;;;;;;;;4991806;28;20046;-78
2022/11/08 02:49:54;;;;;;;6.53;0.80;;;;;;;;;;4990042;28;20048;-79
2022/11/08 02:52:19;;;;;;;2.30;0.80;;;;;;;;;;4996240;28;20041;-78
2022/11/08 02:54:44;;;;;;;1.42;0.60;;;;;;;;;;4995127;28;20525;-79
2022/11/08 02:57:10;;;;;;;2.63;0.90;;;;;;;;;;4996555;28;20038;-79
2022/11/08 02:59:35;;;;;;;1.40;0.52;;;;;;;;;;4996434;28;20455;-80
2022/11/08 03:02:00;;;;;;;2.15;0.63;;;;;;;;;;4998960;28;20038;-80
2022/11/08 03:04:26;;;;;;;0.98;0.50;;;;;;;;;;4996194;28;20092;-79
2022/11/08 03:06:51;;;;;;;1.23;0.57;;;;;;;;;;4997323;28;20049;-79
2022/11/08 03:09:17;;;;;;;2.13;0.60;;;;;;;;;;4993967;28;20147;-79
2022/11/08 03:11:42;;;;;;;1.30;0.60;;;;;;;;;;4988863;28;20392;-78
2022/11/08 03:14:07;;;;;;;2.13;0.60;;;;;;;;;;4999849;28;20494;-79
2022/11/08 03:16:33;;;;;;;2.55;0.73;;;;;;;;;;4998167;28;20042;-80
2022/11/08 03:18:58;;;;;;;3.88;0.80;;;;;;;;;;4998681;28;20366;-79
2022/11/08 03:21:23;;;;;;;2.17;0.50;;;;;;;;;;4999972;28;20034;-80
2022/11/08 03:23:49;;;;;;;1.80;0.70;;;;;;;;;;4999624;28;20038;-79
2022/11/08 03:26:14;;;;;;;0.80;0.60;;;;;;;;;;5001811;28;20129;-78
2022/11/08 03:28:40;;;;;;;1.88;0.70;;;;;;;;;;4999785;28;20050;-79
2022/11/08 03:31:06;;;;;;;2.00;0.60;;;;;;;;;;5000371;28;20133;-78
2022/11/08 03:33:32;;;;;;;1.70;0.50;;;;;;;;;;4992373;28;20062;-79
2022/11/08 03:35:57;;;;;;;2.25;0.40;;;;;;;;;;4996318;28;20101;-79
2022/11/08 03:38:22;;;;;;;0.82;0.47;;;;;;;;;;4994258;28;20039;-80
2022/11/08 03:40:48;;;;;;;1.55;0.60;;;;;;;;;;4995813;28;20141;-79
2022/11/08 03:43:13;;;;;;;1.33;0.50;;;;;;;;;;4995591;28;20474;-79
2022/11/08 03:45:39;;;;;;;1.98;0.55;;;;;;;;;;5000610;28;20064;-78
2022/11/08 03:48:04;;;;;;;1.45;0.60;;;;;;;;;;4993804;28;20109;-80
2022/11/08 03:50:30;;;;;;;1.38;0.60;;;;;;;;;;4995661;28;20034;-79
2022/11/08 03:52:55;;;;;;;2.80;0.50;;;;;;;;;;5000257;28;20117;-79
2022/11/08 03:55:23;;;;;;;1.23;0.50;;;;;;;;;;4994122;28;20070;-79
2022/11/08 03:57:50;;;;;;;1.50;0.65;;;;;;;;;;4991201;28;20113;-78
2022/11/08 04:00:18;;;;;;;1.27;0.50;;;;;;;;;;4999906;28;20038;-79
2022/11/08 04:02:43;;;;;;;0.65;0.40;;;;;;;;;;5000301;28;20042;-78
2022/11/08 04:05:10;;;;;;;1.55;0.60;;;;;;;;;;5012508;28;20104;-79
2022/11/08 04:07:36;;;;;;;1.48;0.70;;;;;;;;;;4995024;28;20046;-79
2022/11/08 04:10:03;;;;;;;0.75;0.40;;;;;;;;;;4993945;28;20072;-80
2022/11/08 04:15:15;;;;;;;3.33;0.50;;;;;;;;;;4998025;28;20057;-79
2022/11/08 04:23:14;;;;;;;0.63;0.32;;;;;;;;;;5004390;28;20053;-79
2022/11/08 04:25:40;;;;;;;0.75;0.38;;;;;;;;;;4993730;28;20066;-78
2022/11/08 04:28:06;;;;;;;1.55;0.80;;;;;;;;;;4994633;28;20066;-79
2022/11/08 04:30:31;;;;;;;0.90;0.50;;;;;;;;;;4995819;28;20042;-78
2022/11/08 04:33:01;;;;;;;1.13;0.47;;;;;;;;;;4995249;28;20081;-79
2022/11/08 04:35:27;;;;;;;1.00;0.60;;;;;;;;;;5003444;28;20037;-79
2022/11/08 04:37:59;;;;;;;0.75;0.40;;;;;;;;;;4991212;28;20039;-79
2022/11/08 04:40:25;;;;;;;5.07;0.45;;;;;;;;;;4992621;28;20049;-79
2022/11/08 04:42:50;;;;;;;1.10;0.50;;;;;;;;;;4998013;28;20046;-78
2022/11/08 04:45:16;;;;;;;0.32;0.30;;;;;;;;;;4993714;28;20048;-78
2022/11/08 04:47:45;;;;;;;1.00;0.47;;;;;;;;;;4993191;28;20034;-78
2022/11/08 04:50:10;;;;;;;1.02;0.47;;;;;;;;;;4992932;28;20398;-79
2022/11/08 04:52:35;;;;;;;0.65;0.43;;;;;;;;;;4998157;28;20034;-79
2022/11/08 04:55:01;;;;;;;1.65;0.50;;;;;;;;;;4990429;28;20442;-80
2022/11/08 04:57:27;;;;;;;1.95;0.32;;;;;;;;;;4990459;28;20069;-79
2022/11/08 04:59:52;;;;;;;1.40;0.50;;;;;;;;;;4992350;28;20180;-80
2022/11/08 05:02:18;;;;;;;0.88;0.50;;;;;;;;;;4998254;28;20122;-79
2022/11/08 05:04:43;;;;;;;1.02;0.50;;;;;;;;;;4993381;28;20512;-79
2022/11/08 05:07:09;;;;;;;5.80;0.57;;;;;;;;;;4994507;28;20038;-78
2022/11/08 05:09:34;;;;;;;0.52;0.40;;;;;;;;;;4999611;28;20473;-78
2022/11/08 05:11:59;;;;;;;1.15;0.40;;;;;;;;;;4993373;28;20042;-80
2022/11/08 05:14:25;;;;;;;1.10;0.50;;;;;;;;;;4994780;28;20026;-78
2022/11/08 05:16:50;;;;;;;1.02;0.45;;;;;;;;;;4994183;28;20108;-79
2022/11/08 05:23:22;;;;;;;1.15;0.50;;;;;;;;;;4993678;28;20038;-79
2022/11/08 05:24:46;;;;;;;2.00;0.50;;;;;;;;;;4989805;28;20081;-80
2022/11/08 05:27:12;;;;;;;0.63;0.35;;;;;;;;;;4995225;28;20469;-80
2022/11/08 05:29:37;;;;;;;0.57;0.40;;;;;;;;;;4994226;28;20108;-78
2022/11/08 05:32:03;;;;;;;0.80;0.50;;;;;;;;;;5000934;28;20046;-79
2022/11/08 05:34:28;;;;;;;0.50;0.43;;;;;;;;;;4994442;28;20034;-79
2022/11/08 05:36:54;;;;;;;0.73;0.45;;;;;;;;;;4993796;28;20046;-79
2022/11/08 05:39:19;;;;;;;1.15;0.50;;;;;;;;;;4993461;28;20073;-79
2022/11/08 05:41:44;;;;;;;2.20;0.60;;;;;;;;;;4993902;28;20035;-79
2022/11/08 05:44:10;;;;;;;1.63;0.75;;;;;;;;;;5002103;28;20407;-79
2022/11/08 05:46:35;;;;;;;0.82;0.50;;;;;;;;;;4997326;28;20038;-79
2022/11/08 05:49:00;;;;;;;1.20;0.57;;;;;;;;;;4995776;28;20045;-79
2022/11/08 05:51:26;;;;;;;1.67;0.68;;;;;;;;;;4994071;28;20039;-79
2022/11/08 05:53:51;;;;;;;2.53;0.80;;;;;;;;;;4993648;28;20045;-79
2022/11/08 05:56:17;;;;;;;1.27;0.60;;;;;;;;;;4993450;28;20034;-79
2022/11/08 05:58:42;;;;;;;1.52;0.63;;;;;;;;;;4995520;28;20871;-78
2022/11/08 06:01:10;;;;;;;1.50;0.60;;;;;;;;;;4996336;28;20035;-79
2022/11/08 06:03:36;;;;;;;1.15;0.65;;;;;;;;;;4997042;28;20034;-78
2022/11/08 06:06:03;;;;;;;1.50;0.73;;;;;;;;;;5001166;28;20038;-79
2022/11/08 06:08:28;;;;;;;4.68;1.02;;;;;;;;;;4993468;28;20062;-79
2022/11/08 06:10:54;;;;;;;1.70;0.70;;;;;;;;;;4999580;28;20062;-79
2022/11/08 06:13:19;;;;;;;1.83;0.73;;;;;;;;;;5002688;28;20034;-79
2022/11/08 06:15:44;;;;;;;4.03;0.90;;;;;;;;;;4996819;28;20038;-78
2022/11/08 06:18:10;;;;;;;2.45;0.80;;;;;;;;;;4997351;28;20042;-78
2022/11/08 06:20:35;;;;;;;1.30;0.60;;;;;;;;;;5000627;28;20049;-78
2022/11/08 06:23:00;;;;;;;1.33;0.68;;;;;;;;;;5004373;28;20033;-78
2022/11/08 06:25:26;;;;;;;2.17;0.80;;;;;;;;;;4999987;28;20501;-78
2022/11/08 06:27:51;;;;;;;2.17;0.90;;;;;;;;;;4997595;28;20045;-78
2022/11/08 06:30:17;;;;;;;1.63;0.68;;;;;;;;;;5004000;28;20042;-78
2022/11/08 06:32:42;;;;;;;2.88;0.75;;;;;;;;;;4996894;28;20033;-78
2022/11/08 06:35:08;;;;;;;1.58;0.80;;;;;;;;;;4988106;28;20394;-79
2022/11/08 06:37:33;;;;;;;2.08;0.70;;;;;;;;;;4989659;28;20117;-78
2022/11/08 06:39:59;;;;;;;1.70;0.75;;;;;;;;;;4988267;28;20492;-79
2022/11/08 06:42:25;;;;;;;1.70;0.80;;;;;;;;;;5001227;28;20030;-79
2022/11/08 06:44:50;;;;;;;2.78;0.90;;;;;;;;;;4988221;28;20030;-79
2022/11/08 06:47:15;;;;;;;2.42;0.90;;;;;;;;;;4996968;28;20418;-79
2022/11/08 06:49:41;;;;;;;2.60;0.95;;;;;;;;;;4996254;28;20478;-79
2022/11/08 06:52:06;;;;;;;2.17;0.95;;;;;;;;;;4998816;28;20030;-80
2022/11/08 06:54:32;;;;;;;3.17;0.90;;;;;;;;;;4996272;28;20145;-79
2022/11/08 06:56:59;;;;;;;2.30;0.90;;;;;;;;;;5002778;28;20038;-78
2022/11/08 06:59:26;;;;;;;2.35;0.80;;;;;;;;;;4999275;28;20074;-79
2022/11/08 07:01:51;;;;;;;2.67;0.90;;;;;;;;;;4998215;28;20042;-79
2022/11/08 07:04:17;;;;;;;2.22;1.13;;;;;;;;;;5002572;28;20042;-80
2022/11/08 07:06:42;;;;;;;3.53;1.00;;;;;;;;;;4999890;28;20053;-78
2022/11/08 07:09:08;;;;;;;1.17;0.70;;;;;;;;;;5005087;28;20034;-80
2022/11/08 07:11:33;;;;;;;4.00;0.90;;;;;;;;;;5003450;28;20054;-80
2022/11/08 07:13:59;;;;;;;1.85;0.98;;;;;;;;;;4996154;28;20026;-79
2022/11/08 07:16:24;;;;;;;5.18;1.08;;;;;;;;;;4995949;28;20528;-80
2022/11/08 07:18:50;;;;;;;1.63;0.80;;;;;;;;;;4994672;28;20034;-80
2022/11/08 07:21:15;;;;;;;4.47;0.98;;;;;;;;;;4996050;28;20049;-79
2022/11/08 07:23:41;;;;;;;2.20;0.80;;;;;;;;;;4995716;28;20371;-80
2022/11/08 07:26:07;;;;;;;3.30;0.98;;;;;;;;;;4996057;28;20064;-80
2022/11/08 07:28:33;;;;;;;3.65;0.80;;;;;;;;;;4995561;28;20538;-80
2022/11/08 07:31:02;;;;;;;2.75;0.90;;;;;;;;;;5013878;28;20138;-79
2022/11/08 07:33:27;;;;;;;1.75;0.73;;;;;;;;;;4993823;28;20035;-80
2022/11/08 07:35:53;;;;;;;1.58;0.68;;;;;;;;;;4995571;28;20116;-79
2022/11/08 07:38:19;;;;;;;2.00;0.85;;;;;;;;;;5002694;28;20030;-79
2022/11/08 07:40:44;;;;;;;3.42;1.15;;;;;;;;;;4998921;28;20042;-80
2022/11/08 07:43:10;;;;;;;1.58;0.80;;;;;;;;;;4996440;28;20026;-78
2022/11/08 07:45:35;;;;;;;3.25;0.98;;;;;;;;;;5003730;28;20088;-80
2022/11/08 07:48:04;;;;;;;2.30;1.00;;;;;;;;;;4995646;28;20034;-78
2022/11/08 07:50:29;;;;;;;2.50;0.90;;;;;;;;;;4992508;28;20042;-79
2022/11/08 07:52:55;;;;;;;2.15;0.90;;;;;;;;;;4993414;28;20034;-81
2022/11/08 07:55:21;;;;;;;3.25;1.00;;;;;;;;;;4991572;28;20038;-76
2022/11/08 07:57:46;;;;;;;5.60;1.23;;;;;;;;;;4995518;28;20038;-78
2022/11/08 08:00:13;;;;;;;2.45;0.93;;;;;;;;;;4996065;28;20050;-75
2022/11/08 08:02:38;;;;;;;1.90;0.85;;;;;;;;;;4994458;28;20034;-76
2022/11/08 08:05:04;;;;;;;2.17;0.93;;;;;;;;;;4994371;28;20034;-76
2022/11/08 08:07:29;;;;;;;2.78;1.05;;;;;;;;;;4996713;28;20038;-79
2022/11/08 08:09:54;;;;;;;3.25;1.20;;;;;;;;;;4987194;28;20087;-76
2022/11/08 08:12:20;;;;;;;3.83;1.20;;;;;;;;;;4997804;28;20459;-76
2022/11/08 08:14:45;;;;;;;3.88;1.13;;;;;;;;;;4980821;28;20161;-78
2022/11/08 08:17:10;;;;;;;2.70;0.93;;;;;;;;;;5001354;28;20034;-76
2022/11/08 08:19:36;;;;;;;4.07;1.38;;;;;;;;;;4991121;28;20042;-75
2022/11/08 08:22:01;;;;;;;3.65;1.20;;;;;;;;;;4992585;28;20032;-76
2022/11/08 08:24:27;;;;;;;4.88;1.10;;;;;;;;;;4991902;28;20738;-77
2022/11/08 08:26:53;;;;;;;7.15;1.20;;;;;;;;;;5003117;28;20037;-78
2022/11/08 08:29:18;;;;;;;4.80;1.10;;;;;;;;;;4982168;28;20109;-78
2022/11/08 08:31:43;;;;;;;4.15;1.10;;;;;;;;;;4991410;28;20124;-79
2022/11/08 08:34:09;;;;;;;5.70;1.20;;;;;;;;;;4978397;28;20053;-79
2022/11/08 08:36:34;;;;;;;4.43;1.00;;;;;;;;;;4990791;28;20150;-75
2022/11/08 08:38:59;;;;;;;7.00;1.13;;;;;;;;;;4989432;28;20038;-76
2022/11/08 08:41:25;;;;;;;3.75;1.05;;;;;;;;;;4994226;28;20470;-77
2022/11/08 08:43:50;;;;;;;4.93;1.10;;;;;;;;;;5001406;28;20034;-77
2022/11/08 08:46:16;;;;;;;2.70;1.02;;;;;;;;;;4994770;28;20121;-76
2022/11/08 08:48:41;;;;;;;4.60;1.20;;;;;;;;;;4992277;28;20034;-78
2022/11/08 08:51:07;;;;;;;10.25;1.20;;;;;;;;;;5001041;28;20041;-77
2022/11/08 08:53:32;;;;;;;4.28;1.45;;;;;;;;;;4979959;28;20054;-79
2022/11/08 08:55:57;;;;;;;4.97;1.45;;;;;;;;;;4991229;28;20097;-78
2022/11/08 08:58:23;;;;;;;4.38;1.42;;;;;;;;;;4986354;28;20037;-78
2022/11/08 09:00:48;;;;;;;3.88;1.08;;;;;;;;;;4988442;28;20077;-77
2022/11/08 09:03:14;;;;;;;7.63;1.15;;;;;;;;;;4991775;28;20061;-78
2022/11/08 09:05:45;;;;;;;2.90;1.02;;;;;;;;;;4992667;28;20116;-78
2022/11/08 09:08:13;;;;;;;4.57;1.30;;;;;;;;;;4990204;28;20112;-77
2022/11/08 09:10:38;;;;;;;4.20;1.27;;;;;;;;;;4989719;28;20041;-77
2022/11/08 09:13:04;;;;;;;6.35;1.35;;;;;;;;;;4989108;28;20983;-78
2022/11/08 09:15:30;;;;;;;3.17;1.05;;;;;;;;;;4989423;28;20474;-77
2022/11/08 09:17:56;;;;;;;3.42;1.27;;;;;;;;;;4992459;28;20045;-79
2022/11/08 09:20:22;;;;;;;3.85;1.15;;;;;;;;;;4987694;28;20450;-77
2022/11/08 09:22:47;;;;;;;4.15;1.45;;;;;;;;;;4989624;28;20065;-77
2022/11/08 09:25:13;;;;;;;3.20;1.00;;;;;;;;;;4995176;28;20039;-79
2022/11/08 09:27:38;;;;;;;3.58;0.95;;;;;;;;;;4989550;28;20034;-78
2022/11/08 09:30:04;;;;;;;2.83;1.00;;;;;;;;;;4976987;28;20058;-78
2022/11/08 09:32:30;;;;;;;3.95;1.13;;;;;;;;;;4990005;28;20034;-78
2022/11/08 09:34:56;;;;;;;3.13;1.10;;;;;;;;;;4988310;28;20034;-78
2022/11/08 09:37:22;;;;;;;4.10;1.02;;;;;;;;;;4982939;28;20458;-78
2022/11/08 09:39:47;;;;;;;4.75;1.10;;;;;;;;;;4992206;28;20065;-77
2022/11/08 09:42:29;;;;;;;10.40;1.27;;;;;;;;;;4987796;28;20038;-78
2022/11/08 09:44:57;;;;;;;3.50;1.17;;;;;;;;;;4988090;28;20035;-77
2022/11/08 09:47:24;;;;;;;3.30;1.00;;;;;;;;;;4990940;28;20034;-78
2022/11/08 09:50:03;;;;;;;4.65;1.10;;;;;;;;;;4990740;28;20053;-77
2022/11/08 09:52:30;;;;;;;4.75;1.10;;;;;;;;;;4996644;28;20042;-77
2022/11/08 09:55:25;;;;;;;2.47;1.10;;;;;;;;;;4994216;28;20038;-77
2022/11/08 09:58:02;;;;;;;6.13;1.10;;;;;;;;;;4985198;28;20418;-77
2022/11/08 10:00:28;;;;;;;2.92;1.02;;;;;;;;;;4997710;28;20181;-76
2022/11/08 10:02:53;;;;;;;3.75;1.35;;;;;;;;;;4997623;28;20116;-79
2022/11/08 10:05:19;;;;;;;3.85;1.35;;;;;;;;;;4993015;28;20440;-78
2022/11/08 10:07:47;;;;;;;3.45;1.10;;;;;;;;;;4984492;28;20107;-77
2022/11/08 10:10:43;;;;;;;3.47;1.13;;;;;;;;;;4997539;28;20386;-78
2022/11/08 10:13:32;;;;;;;3.03;1.02;;;;;;;;;;4994138;28;20030;-78
2022/11/08 10:16:35;;;;;;;5.78;1.40;;;;;;;;;;4996348;28;20034;-78
2022/11/08 10:19:20;;;;;;;4.65;1.50;;;;;;;;;;4994605;28;20076;-79
2022/11/08 10:21:56;;;;;;;4.03;1.45;;;;;;;;;;4990340;28;20117;-77
2022/11/08 10:24:38;;;;;;;4.55;1.30;;;;;;;;;;4990209;28;20105;-77
2022/11/08 10:27:12;;;;;;;3.60;1.55;;;;;;;;;;4989127;28;20121;-76
2022/11/08 10:29:42;;;;;;;5.25;1.63;;;;;;;;;;4989722;28;20050;-78
2022/11/08 10:32:19;;;;;;;3.72;1.70;;;;;;;;;;4991588;28;20078;-76
2022/11/08 10:34:56;;;;;;;9.77;1.75;;;;;;;;;;4980056;28;20406;-77
2022/11/08 10:37:23;;;;;;;4.30;1.35;;;;;;;;;;4993808;28;20519;-79
2022/11/08 10:40:01;;;;;;;5.85;1.50;;;;;;;;;;4990431;28;20467;-77
2022/11/08 10:42:38;;;;;;;6.18;1.92;;;;;;;;;;4992063;28;20080;-75
2022/11/08 10:45:04;;;;;;;7.53;1.60;;;;;;;;;;4975829;28;20117;-76
2022/11/08 10:47:30;;;;;;;4.55;1.70;;;;;;;;;;4991729;28;20042;-76
2022/11/08 10:49:56;;;;;;;6.57;1.80;;;;;;;;;;4989952;28;20691;-77
2022/11/08 10:52:37;;;;;;;4.97;1.80;;;;;;;;;;4995973;28;20033;-77
2022/11/08 10:55:05;;;;;;;6.20;1.90;;;;;;;;;;4989004;28;20046;-76
2022/11/08 10:57:31;;;;;;;6.55;1.40;;;;;;;;;;4990644;28;20039;-79
2022/11/08 11:00:15;;;;;;;5.28;1.65;;;;;;;;;;5000826;28;20100;-77
2022/11/08 11:02:40;;;;;;;4.35;1.40;;;;;;;;;;4991974;28;20043;-77
2022/11/08 11:05:15;;;;;;;5.80;1.80;;;;;;;;;;4986461;28;20038;-76
2022/11/08 11:07:44;;;;;;;5.32;1.35;;;;;;;;;;5001373;28;20046;-76
2022/11/08 11:10:34;;;;;;;15.20;1.30;;;;;;;;;;4994461;28;20027;-77
2022/11/08 11:13:18;;;;;;;11.30;1.60;;;;;;;;;;4994573;28;20092;-77
2022/11/08 11:15:47;;;;;;;7.80;1.10;;;;;;;;;;4988909;28;20041;-78
2022/11/08 11:18:27;;;;;;;9.98;1.60;;;;;;;;;;4990397;28;20124;-77
2022/11/08 11:21:18;;;;;;;6.18;1.40;;;;;;;;;;4991145;28;20042;-78
2022/11/08 11:23:48;;;;;;;2.40;1.08;;;;;;;;;;4987592;28;20482;-78
2022/11/08 11:26:30;;;;;;;5.40;1.70;;;;;;;;;;4990464;28;20038;-78
2022/11/08 11:29:08;;;;;;;4.78;1.35;;;;;;;;;;4991401;28;20036;-77
2022/11/08 11:31:41;;;;;;;2.85;1.00;;;;;;;;;;4989959;28;20086;-80
2022/11/08 11:34:16;;;;;;;4.93;1.08;;;;;;;;;;4993058;28;20045;-78
2022/11/08 11:36:49;;;;;;;8.13;1.30;;;;;;;;;;4993790;28;20038;-77
2022/11/08 11:39:21;;;;;;;3.38;1.25;;;;;;;;;;4991150;28;20046;-78
2022/11/08 11:42:00;;;;;;;3.83;1.08;;;;;;;;;;4989289;28;20038;-77
2022/11/08 11:44:50;;;;;;;3.00;1.02;;;;;;;;;;4989335;28;20065;-77
2022/11/08 11:47:25;;;;;;;4.78;1.00;;;;;;;;;;4992131;28;20044;-77
2022/11/08 11:49:53;;;;;;;2.60;1.10;;;;;;;;;;4984597;28;20042;-80
2022/11/08 11:52:18;;;;;;;4.35;1.08;;;;;;;;;;4982053;28;20034;-78
2022/11/08 11:54:47;;;;;;;2.90;1.00;;;;;;;;;;4988916;28;20097;-80
2022/11/08 11:57:31;;;;;;;2.95;1.10;;;;;;;;;;4991310;28;20038;-78
2022/11/08 12:00:03;;;;;;;4.60;0.93;;;;;;;;;;4991552;28;20038;-78
2022/11/08 12:02:29;;;;;;;3.05;1.20;;;;;;;;;;4993125;28;20050;-76
2022/11/08 12:05:04;;;;;;;3.65;1.10;;;;;;;;;;4991207;28;20050;-78
2022/11/08 12:07:33;;;;;;;4.20;1.10;;;;;;;;;;4990845;28;20403;-74
2022/11/08 12:10:09;;;;;;;3.90;0.90;;;;;;;;;;5006076;28;20474;-74
2022/11/08 12:12:47;;;;;;;2.88;0.90;;;;;;;;;;4989431;28;20045;-79
2022/11/08 12:15:21;;;;;;;2.28;0.90;;;;;;;;;;4990801;28;20034;-77
2022/11/08 12:18:05;;;;;;;2.33;1.10;;;;;;;;;;4991492;28;20041;-77
2022/11/08 12:20:38;;;;;;;;;;;;;;;;;;4993537;28;20042;-78
2022/11/08 12:23:23;;;;;;;3.10;1.02;;;;;;;;;;4980589;28;19926;-78
2022/11/08 12:26:12;;;;;;;3.72;0.90;;;;;;;;;;4984565;28;20136;-78
2022/11/08 12:28:56;;;;;;;3.05;0.75;;;;;;;;;;4991328;28;20046;-78
2022/11/08 12:31:43;;;;;;;7.63;1.00;;;;;;;;;;4994623;28;20084;-79
2022/11/08 12:34:14;;;;;;;3.78;1.02;;;;;;;;;;4994448;28;20036;-80
2022/11/08 12:36:54;;;;;;;5.15;0.70;;;;;;;;;;4988025;28;20390;-80
2022/11/08 12:39:34;;;;;;;3.90;0.85;;;;;;;;;;4994795;28;20473;-80
2022/11/08 12:42:20;;;;;;;1.88;0.90;;;;;;;;;;4990307;28;20045;-79
2022/11/08 12:45:07;;;;;;;3.97;0.90;;;;;;;;;;4988598;28;20120;-80
2022/11/08 12:47:34;;;;;;;3.30;1.45;;;;;;;;;;4986370;28;20478;-82
2022/11/08 12:50:30;;;;;;;3.90;1.00;;;;;;;;;;4986635;28;20042;-80
2022/11/08 12:53:23;;;;;;;2.65;0.80;;;;;;;;;;4982712;28;20073;-80
2022/11/08 12:55:52;;;;;;;5.00;1.00;;;;;;;;;;4986275;28;20097;-79
2022/11/08 12:58:27;;;;;;;4.97;0.90;;;;;;;;;;4987118;28;20109;-79
2022/11/08 13:00:56;;;;;;;2.47;0.80;;;;;;;;;;4984364;28;20128;-78
2022/11/08 13:03:28;;;;;;;1.95;0.80;;;;;;;;;;4979984;28;20046;-78
2022/11/08 13:06:32;;;;;;;3.13;1.10;;;;;;;;;;4988193;28;20116;-77
2022/11/08 13:09:03;;;;;;;2.90;1.00;;;;;;;;;;4983630;28;20057;-78
2022/11/08 13:11:37;;;;;;;3.75;0.98;;;;;;;;;;4982396;28;20129;-79
2022/11/08 13:14:03;;;;;;;3.00;0.90;;;;;;;;;;4994643;28;20038;-80
2022/11/08 13:16:36;;;;;;;1.77;0.93;;;;;;;;;;4989453;28;20172;-80
2022/11/08 13:19:04;;;;;;;4.00;1.10;;;;;;;;;;4991301;28;20068;-78
2022/11/08 13:21:37;;;;;;;2.10;1.20;;;;;;;;;;4990070;28;20092;-78
2022/11/08 13:24:05;;;;;;;3.05;0.95;;;;;;;;;;4996524;28;20038;-78
2022/11/08 13:26:41;;;;;;;3.22;0.90;;;;;;;;;;4987264;28;20049;-80
2022/11/08 13:29:13;;;;;;;2.85;1.05;;;;;;;;;;4990332;28;20070;-78
2022/11/08 13:31:39;;;;;;;4.55;1.40;;;;;;;;;;4988786;28;20038;-83
2022/11/08 13:34:14;;;;;;;14.65;1.38;;;;;;;;;;4990944;28;20053;-79
2022/11/08 13:36:48;;;;;;;3.85;1.10;;;;;;;;;;4988155;28;20039;-77
2022/11/08 13:39:54;;;;;;;3.40;1.20;;;;;;;;;;4991485;28;20053;-79
2022/11/08 13:42:19;;;;;;;3.90;1.20;;;;;;;;;;4957797;28;20116;-79
2022/11/08 13:44:54;;;;;;;3.55;1.13;;;;;;;;;;4987670;28;20046;-81
2022/11/08 13:47:31;;;;;;;3.35;1.17;;;;;;;;;;4990159;28;20041;-79
2022/11/08 13:50:28;;;;;;;4.10;1.20;;;;;;;;;;4988315;28;20031;-79
2022/11/08 13:53:20;;;;;;;7.22;1.50;;;;;;;;;;4990521;28;20067;-78
2022/11/08 13:55:47;;;;;;;6.72;1.05;;;;;;;;;;4984304;28;20070;-84
2022/11/08 13:58:33;;;;;;;3.35;1.27;;;;;;;;;;4988287;28;20113;-78
2022/11/08 14:01:07;;;;;;;3.58;1.15;;;;;;;;;;4988177;28;20041;-79
2022/11/08 14:03:33;;;;;;;4.45;1.50;;;;;;;;;;4981747;28;20117;-78
2022/11/08 14:06:13;;;;;;;5.65;1.20;;;;;;;;;;4988460;28;20092;-78
2022/11/08 14:08:53;;;;;;;3.78;1.00;;;;;;;;;;4993142;28;20490;-79
2022/11/08 14:11:39;;;;;;;3.00;1.02;;;;;;;;;;4986759;28;20529;-77
2022/11/08 14:14:32;;;;;;;6.40;0.90;;;;;;;;;;4987464;28;20049;-78
2022/11/08 14:17:21;;;;;;;4.88;1.90;;;;;;;;;;4987911;28;20050;-78
2022/11/08 14:19:47;;;;;;;2.03;0.82;;;;;;;;;;4988510;28;20046;-77
2022/11/08 14:22:14;;;;;;;3.00;1.15;;;;;;;;;;4985460;28;20073;-77
2022/11/08 14:24:40;;;;;;;4.38;1.42;;;;;;;;;;4987024;28;20046;-79
2022/11/08 14:27:05;;;;;;;3.92;1.27;;;;;;;;;;4996888;28;20038;-79
2022/11/08 14:29:31;;;;;;;4.38;1.30;;;;;;;;;;5002013;28;20037;-79
2022/11/08 14:32:15;;;;;;;3.13;0.80;;;;;;;;;;4973961;28;20034;-78
2022/11/08 14:34:40;;;;;;;4.80;1.20;;;;;;;;;;4985208;28;20039;-79
2022/11/08 14:37:14;;;;;;;5.47;1.58;;;;;;;;;;4996847;28;20104;-79
2022/11/08 14:39:39;;;;;;;;;;;;;;;;;;4989076;28;20487;-80
2022/11/08 14:42:16;;;;;;;1.98;0.90;;;;;;;;;;4993724;28;19924;-79
2022/11/08 14:44:42;;;;;;;3.03;0.93;;;;;;;;;;4988593;28;20049;-79
2022/11/08 14:47:20;;;;;;;3.08;1.13;;;;;;;;;;4988871;28;20038;-80
2022/11/08 14:49:46;;;;;;;3.80;0.80;;;;;;;;;;4987012;28;20066;-79
2022/11/08 14:52:21;;;;;;;5.25;0.88;;;;;;;;;;4989532;28;20066;-79
2022/11/08 14:54:49;;;;;;;2.40;0.88;;;;;;;;;;4992381;28;20050;-80
2022/11/08 14:57:27;;;;;;;4.20;0.80;;;;;;;;;;4991501;28;20125;-79
2022/11/08 14:59:53;;;;;;;2.35;0.80;;;;;;;;;;4990540;28;20065;-80
2022/11/08 15:02:18;;;;;;;3.08;1.10;;;;;;;;;;4995397;28;20070;-81
2022/11/08 15:04:44;;;;;;;2.95;1.10;;;;;;;;;;4992892;28;20044;-79
2022/11/08 15:07:09;;;;;;;4.97;0.82;;;;;;;;;;4989275;28;20222;-79
2022/11/08 15:09:35;;;;;;;2.42;0.90;;;;;;;;;;4994869;28;20461;-80
2022/11/08 15:12:03;;;;;;;4.47;1.17;;;;;;;;;;4985992;28;20046;-80
2022/11/08 15:14:32;;;;;;;2.88;0.68;;;;;;;;;;4988929;28;20514;-79
2022/11/08 15:16:57;;;;;;;3.83;1.52;;;;;;;;;;4991281;28;20163;-79